Time;durP1;ratioP1;P1;durP2;ratioP2;P2;SDS_P1;SDS_P2;PMS_P1;PMS_P2;Temp;Humidity;BMP_temperature;BMP_pressure;BME280_temperature;BME280_humidity;BME280_pressure;Samples;Min_cycle;Max_cycle;Signal;HPM_P1;HPM_P2
2022/06/02 00:02:22;;;;;;;17.93;10.60;;;;;;;;;;4956173;29;20405;-56
2022/06/02 00:05:07;;;;;;;10.57;9.57;;;;;;;;;;4957302;29;20405;-56
2022/06/02 00:07:49;;;;;;;11.47;9.37;;;;;;;;;;4957378;29;20408;-56
2022/06/02 00:10:24;;;;;;;12.10;9.77;;;;;;;;;;4957301;29;20429;-56
2022/06/02 00:12:58;;;;;;;13.00;8.57;;;;;;;;;;4957290;29;20513;-56
2022/06/02 00:15:26;;;;;;;12.83;9.83;;;;;;;;;;4957180;29;20794;-56
2022/06/02 00:18:13;;;;;;;11.67;9.23;;;;;;;;;;4957248;29;20417;-56
2022/06/02 00:20:54;;;;;;;11.70;10.33;;;;;;;;;;4957002;29;20436;-56
2022/06/02 00:23:42;;;;;;;12.33;9.40;;;;;;;;;;4957047;29;20610;-55
2022/06/02 00:26:28;;;;;;;11.70;9.63;;;;;;;;;;4957168;29;20476;-55
2022/06/02 00:28:57;;;;;;;13.40;9.60;;;;;;;;;;4956999;29;20432;-56
2022/06/02 00:31:40;;;;;;;13.07;11.20;;;;;;;;;;4957067;29;20410;-56
2022/06/02 00:34:25;;;;;;;11.23;9.87;;;;;;;;;;4956750;29;20460;-55
2022/06/02 00:37:03;;;;;;;12.60;10.47;;;;;;;;;;4956936;29;20402;-55
2022/06/02 00:39:31;;;;;;;14.00;11.00;;;;;;;;;;4956714;29;20429;-55
2022/06/02 00:42:06;;;;;;;16.87;11.77;;;;;;;;;;4956118;29;20817;-56
2022/06/02 00:44:38;;;;;;;14.83;11.10;;;;;;;;;;4955353;29;20531;-55
2022/06/02 00:47:39;;;;;;;15.53;10.90;;;;;;;;;;4955905;29;20409;-56
2022/06/02 00:50:09;;;;;;;12.93;9.00;;;;;;;;;;4858785;29;20452;-56
2022/06/02 00:52:48;;;;;;;16.03;11.33;;;;;;;;;;4938797;29;20784;-55
2022/06/02 00:58:20;;;;;;;11.50;9.80;;;;;;;;;;4955455;29;20393;-55
2022/06/02 01:00:55;;;;;;;14.13;10.70;;;;;;;;;;4955010;29;20425;-55
2022/06/02 01:03:24;;;;;;;16.20;10.90;;;;;;;;;;4955081;29;20491;-55
2022/06/02 01:06:09;;;;;;;13.97;9.87;;;;;;;;;;4954547;29;20955;-55
2022/06/02 01:08:54;;;;;;;15.73;10.30;;;;;;;;;;4955092;29;20429;-56
2022/06/02 01:11:32;;;;;;;18.20;11.17;;;;;;;;;;4955078;29;20406;-55
2022/06/02 01:14:04;;;;;;;14.37;11.40;;;;;;;;;;4954850;29;20463;-55
2022/06/02 01:16:44;;;;;;;14.00;10.93;;;;;;;;;;4955078;29;20404;-55
2022/06/02 01:19:14;;;;;;;11.83;10.20;;;;;;;;;;4954962;29;20508;-56
2022/06/02 01:21:58;;;;;;;11.37;9.20;;;;;;;;;;4955041;29;20406;-56
2022/06/02 01:24:30;;;;;;;13.33;11.00;;;;;;;;;;4954847;29;20407;-56
2022/06/02 01:27:11;;;;;;;14.13;10.47;;;;;;;;;;4954999;29;20761;-56
2022/06/02 01:29:56;;;;;;;16.70;12.10;;;;;;;;;;4954788;29;20505;-56
2022/06/02 01:32:27;;;;;;;16.73;10.80;;;;;;;;;;4954884;29;20410;-56
2022/06/02 01:35:06;;;;;;;15.67;11.80;;;;;;;;;;4954587;29;20465;-56
2022/06/02 01:37:37;;;;;;;13.30;11.20;;;;;;;;;;4955138;29;20462;-56
2022/06/02 01:40:02;;;;;;;12.43;10.10;;;;;;;;;;4954705;29;20429;-56
2022/06/02 01:42:38;;;;;;;16.53;10.67;;;;;;;;;;4919331;29;1059459;-56
2022/06/02 01:45:23;;;;;;;14.00;11.23;;;;;;;;;;4955578;29;20613;-55
2022/06/02 01:47:53;;;;;;;14.30;11.70;;;;;;;;;;4938520;29;20429;-56
2022/06/02 01:50:22;;;;;;;16.03;10.93;;;;;;;;;;4955458;29;20492;-55
2022/06/02 01:53:00;;;;;;;14.13;11.10;;;;;;;;;;4955561;29;20416;-56
2022/06/02 01:55:33;;;;;;;14.50;11.57;;;;;;;;;;4955359;29;20419;-56
2022/06/02 01:58:17;;;;;;;19.10;10.70;;;;;;;;;;4955460;29;20834;-55
2022/06/02 02:00:43;;;;;;;14.30;10.87;;;;;;;;;;4955334;29;20428;-55
2022/06/02 02:03:16;;;;;;;14.70;10.77;;;;;;;;;;4955372;29;20419;-56
2022/06/02 02:05:48;;;;;;;14.63;10.73;;;;;;;;;;4955130;29;20428;-55
2022/06/02 02:08:33;;;;;;;13.73;10.40;;;;;;;;;;4955304;29;20449;-55
2022/06/02 02:11:11;;;;;;;14.40;11.60;;;;;;;;;;4955324;29;20403;-56
2022/06/02 02:13:56;;;;;;;17.07;10.70;;;;;;;;;;4954913;29;20547;-56
2022/06/02 02:16:28;;;;;;;14.57;10.60;;;;;;;;;;4955211;29;20462;-57
2022/06/02 02:18:58;;;;;;;12.83;10.00;;;;;;;;;;4954933;29;20414;-55
2022/06/02 02:21:28;;;;;;;15.00;11.33;;;;;;;;;;4955112;29;20810;-56
2022/06/02 02:24:02;;;;;;;16.20;11.20;;;;;;;;;;4954122;28;20921;-56
2022/06/02 02:26:37;;;;;;;16.73;13.03;;;;;;;;;;4954985;29;20416;-56
2022/06/02 02:29:21;;;;;;;15.50;11.03;;;;;;;;;;4954722;29;20455;-55
2022/06/02 02:31:55;;;;;;;17.00;13.10;;;;;;;;;;4954921;29;21107;-55
2022/06/02 02:34:32;;;;;;;19.27;13.93;;;;;;;;;;4954557;29;20464;-56
2022/06/02 02:37:09;;;;;;;20.10;12.20;;;;;;;;;;4954749;29;20420;-56
2022/06/02 02:39:45;;;;;;;15.93;11.87;;;;;;;;;;4954594;29;20798;-56
2022/06/02 02:42:14;;;;;;;17.90;12.30;;;;;;;;;;4954613;29;20467;-55
2022/06/02 02:44:59;;;;;;;18.67;11.70;;;;;;;;;;4954466;29;20774;-56
2022/06/02 02:47:35;;;;;;;16.60;11.63;;;;;;;;;;4954516;29;20471;-56
2022/06/02 02:50:09;;;;;;;13.57;10.80;;;;;;;;;;4954388;29;20878;-55
2022/06/02 02:52:39;;;;;;;16.97;12.00;;;;;;;;;;4954479;29;20406;-56
2022/06/02 02:55:10;;;;;;;18.97;12.70;;;;;;;;;;4954194;29;20507;-55
2022/06/02 02:57:36;;;;;;;16.77;11.77;;;;;;;;;;4954268;29;20433;-56
2022/06/02 03:00:14;;;;;;;17.73;12.00;;;;;;;;;;4954263;29;20418;-55
2022/06/02 03:02:46;;;;;;;13.97;11.47;;;;;;;;;;4954281;29;20403;-56
2022/06/02 03:05:19;;;;;;;20.73;12.77;;;;;;;;;;4954129;29;20830;-55
2022/06/02 03:07:45;;;;;;;15.97;12.33;;;;;;;;;;4954251;29;20896;-56
2022/06/02 03:10:14;;;;;;;16.43;12.87;;;;;;;;;;4954021;29;20428;-55
2022/06/02 03:12:40;;;;;;;18.87;13.10;;;;;;;;;;4954152;29;20913;-55
2022/06/02 03:15:24;;;;;;;19.90;12.03;;;;;;;;;;4953930;29;20469;-56
2022/06/02 03:18:02;;;;;;;19.70;13.40;;;;;;;;;;4954002;29;20405;-55
2022/06/02 03:20:32;;;;;;;23.07;15.30;;;;;;;;;;4953946;29;20447;-55
2022/06/02 03:23:09;;;;;;;31.00;16.47;;;;;;;;;;4954054;29;20471;-55
2022/06/02 03:25:44;;;;;;;26.73;17.23;;;;;;;;;;4953816;29;20407;-55
2022/06/02 03:28:36;;;;;;;29.47;16.87;;;;;;;;;;4953915;29;20874;-55
2022/06/02 03:31:07;;;;;;;31.53;17.13;;;;;;;;;;4953937;29;20902;-55
2022/06/02 03:33:54;;;;;;;27.63;16.50;;;;;;;;;;4953990;29;20466;-55
2022/06/02 03:36:26;;;;;;;23.90;15.30;;;;;;;;;;4937561;28;20425;-55
2022/06/02 03:39:05;;;;;;;25.97;16.10;;;;;;;;;;4953688;29;20424;-55
2022/06/02 03:41:34;;;;;;;19.40;14.23;;;;;;;;;;4954007;29;20435;-55
2022/06/02 03:44:21;;;;;;;23.90;14.70;;;;;;;;;;4953752;29;20415;-55
2022/06/02 03:47:08;;;;;;;26.17;18.10;;;;;;;;;;4953782;29;20458;-55
2022/06/02 03:49:48;;;;;;;22.93;15.33;;;;;;;;;;4953546;29;20904;-56
2022/06/02 03:52:32;;;;;;;21.20;14.40;;;;;;;;;;4953740;29;20879;-56
2022/06/02 03:55:20;;;;;;;24.80;17.03;;;;;;;;;;4953391;29;20488;-55
2022/06/02 03:58:05;;;;;;;33.23;18.17;;;;;;;;;;4953682;29;20414;-55
2022/06/02 04:00:45;;;;;;;26.90;17.03;;;;;;;;;;4953477;29;20423;-55
2022/06/02 04:03:13;;;;;;;32.97;17.23;;;;;;;;;;4953646;29;20405;-55
2022/06/02 04:05:48;;;;;;;21.60;16.07;;;;;;;;;;4953383;29;20405;-55
2022/06/02 04:08:34;;;;;;;25.30;16.20;;;;;;;;;;4953531;29;20413;-56
2022/06/02 04:11:10;;;;;;;23.70;15.43;;;;;;;;;;4953466;29;20409;-55
2022/06/02 04:13:52;;;;;;;22.17;15.60;;;;;;;;;;4953521;29;20954;-56
2022/06/02 04:16:26;;;;;;;21.70;15.13;;;;;;;;;;4953528;29;20411;-55
2022/06/02 04:21:59;;;;;;;23.73;16.40;;;;;;;;;;4953518;29;20393;-55
2022/06/02 04:24:32;;;;;;;25.03;15.90;;;;;;;;;;4953254;29;20425;-56
2022/06/02 04:27:16;;;;;;;21.73;16.33;;;;;;;;;;4953512;29;20409;-56
2022/06/02 04:29:42;;;;;;;28.10;16.57;;;;;;;;;;4953171;29;20433;-56
2022/06/02 04:32:11;;;;;;;26.90;16.63;;;;;;;;;;4953368;29;20493;-55
2022/06/02 04:34:48;;;;;;;27.60;17.07;;;;;;;;;;4953093;29;20500;-55
2022/06/02 04:37:26;;;;;;;26.33;16.90;;;;;;;;;;4953426;29;20982;-56
2022/06/02 04:40:00;;;;;;;25.30;15.70;;;;;;;;;;4953086;29;20425;-56
2022/06/02 04:42:44;;;;;;;20.30;14.60;;;;;;;;;;4953259;29;20760;-56
2022/06/02 04:45:24;;;;;;;22.80;14.97;;;;;;;;;;4953070;29;20400;-55
2022/06/02 04:48:03;;;;;;;29.87;17.30;;;;;;;;;;4954961;28;21001;-56
2022/06/02 04:50:42;;;;;;;26.80;16.60;;;;;;;;;;4956678;29;20427;-56
2022/06/02 04:53:27;;;;;;;24.80;16.30;;;;;;;;;;4956647;29;20928;-56
2022/06/02 04:56:04;;;;;;;23.13;15.80;;;;;;;;;;4956492;29;20413;-56
2022/06/02 04:58:50;;;;;;;31.20;18.83;;;;;;;;;;4956444;29;20913;-55
2022/06/02 05:01:22;;;;;;;26.00;16.90;;;;;;;;;;4956535;29;20882;-56
2022/06/02 05:03:56;;;;;;;29.83;19.70;;;;;;;;;;4956398;29;20406;-56
2022/06/02 05:06:27;;;;;;;30.43;19.17;;;;;;;;;;4956107;29;20409;-56
2022/06/02 05:08:58;;;;;;;31.43;20.37;;;;;;;;;;4955251;29;20506;-56
2022/06/02 05:11:28;;;;;;;29.77;18.83;;;;;;;;;;4955884;29;20460;-56
2022/06/02 05:13:59;;;;;;;29.77;20.37;;;;;;;;;;4955387;29;20873;-56
2022/06/02 05:16:25;;;;;;;30.77;20.90;;;;;;;;;;4955859;29;20398;-56
2022/06/02 05:19:09;;;;;;;27.47;19.70;;;;;;;;;;4955371;29;20944;-56
2022/06/02 05:21:46;;;;;;;33.50;20.93;;;;;;;;;;4956132;29;20429;-56
2022/06/02 05:24:29;;;;;;;31.27;20.83;;;;;;;;;;4955982;29;20416;-56
2022/06/02 05:27:12;;;;;;;31.93;20.63;;;;;;;;;;4956013;29;20942;-55
2022/06/02 05:29:41;;;;;;;27.83;19.07;;;;;;;;;;4955812;29;20422;-57
2022/06/02 05:32:13;;;;;;;27.43;17.97;;;;;;;;;;4956024;29;20414;-55
2022/06/02 05:34:53;;;;;;;30.27;18.73;;;;;;;;;;4955863;29;20556;-56
2022/06/02 05:37:38;;;;;;;24.83;17.93;;;;;;;;;;4955936;29;20468;-56
2022/06/02 05:40:15;;;;;;;33.67;22.17;;;;;;;;;;4955685;29;20425;-56
2022/06/02 05:43:01;;;;;;;34.73;21.93;;;;;;;;;;4956326;29;20465;-57
2022/06/02 05:45:38;;;;;;;31.53;21.37;;;;;;;;;;4907143;29;20420;-55
2022/06/02 05:48:11;;;;;;;31.63;20.13;;;;;;;;;;4955732;29;20398;-56
2022/06/02 05:50:56;;;;;;;27.63;18.60;;;;;;;;;;4955454;29;20413;-57
2022/06/02 05:53:22;;;;;;;34.77;20.43;;;;;;;;;;4955607;29;20461;-56
2022/06/02 05:56:03;;;;;;;27.90;18.30;;;;;;;;;;4955551;29;20402;-56
2022/06/02 05:58:40;;;;;;;23.33;16.67;;;;;;;;;;4954867;28;20398;-55
2022/06/02 06:01:15;;;;;;;28.20;17.40;;;;;;;;;;4955691;29;20464;-56
2022/06/02 06:03:56;;;;;;;31.60;21.07;;;;;;;;;;4955492;29;20949;-55
2022/06/02 06:06:28;;;;;;;33.17;21.77;;;;;;;;;;4955457;29;20410;-56
2022/06/02 06:09:04;;;;;;;26.43;18.70;;;;;;;;;;4955209;29;20891;-56
2022/06/02 06:11:52;;;;;;;28.80;18.97;;;;;;;;;;4955249;29;20430;-55
2022/06/02 06:14:31;;;;;;;32.10;20.30;;;;;;;;;;4954977;29;20464;-54
2022/06/02 06:17:15;;;;;;;30.03;20.47;;;;;;;;;;4955210;29;20469;-56
2022/06/02 06:19:52;;;;;;;30.70;20.27;;;;;;;;;;4954838;29;20420;-57
2022/06/02 06:22:45;;;;;;;28.50;19.40;;;;;;;;;;4954723;29;20376;-55
2022/06/02 06:25:20;;;;;;;32.50;19.93;;;;;;;;;;4950523;29;20977;-55
2022/06/02 06:28:09;;;;;;;23.80;19.10;;;;;;;;;;4954898;29;20402;-56
2022/06/02 06:30:41;;;;;;;30.70;20.17;;;;;;;;;;4954848;29;20422;-55
2022/06/02 06:33:07;;;;;;;28.40;18.30;;;;;;;;;;4954809;29;20401;-54
2022/06/02 06:35:41;;;;;;;29.93;20.43;;;;;;;;;;4954675;29;20417;-54
2022/06/02 06:38:07;;;;;;;28.37;19.43;;;;;;;;;;4954760;29;20969;-55
2022/06/02 06:40:49;;;;;;;27.90;18.93;;;;;;;;;;4954540;29;20429;-56
2022/06/02 06:43:30;;;;;;;25.40;18.17;;;;;;;;;;4954678;29;20425;-57
2022/06/02 06:46:08;;;;;;;28.47;18.53;;;;;;;;;;4954480;29;20402;-55
2022/06/02 06:48:52;;;;;;;24.30;17.67;;;;;;;;;;4954498;29;20989;-56
2022/06/02 06:51:24;;;;;;;23.57;16.13;;;;;;;;;;4954472;29;20484;-55
2022/06/02 06:54:02;;;;;;;22.97;17.30;;;;;;;;;;4954482;29;20474;-56
2022/06/02 06:56:40;;;;;;;21.20;16.50;;;;;;;;;;4954637;29;20378;-56
2022/06/02 06:59:26;;;;;;;23.57;15.87;;;;;;;;;;4954286;29;20399;-56
2022/06/02 07:01:51;;;;;;;22.97;15.90;;;;;;;;;;4954428;29;20399;-57
2022/06/02 07:04:20;;;;;;;18.83;14.40;;;;;;;;;;4954310;29;20411;-55
2022/06/02 07:06:53;;;;;;;17.57;14.00;;;;;;;;;;4954655;29;20385;-57
2022/06/02 07:09:19;;;;;;;18.80;14.10;;;;;;;;;;4954065;28;20502;-55
2022/06/02 07:14:45;;;;;;;23.53;14.37;;;;;;;;;;4981289;28;20539;-57
2022/06/02 07:17:27;;;;;;;19.27;15.40;;;;;;;;;;4973314;28;20964;-57
2022/06/02 07:20:07;;;;;;;20.07;14.33;;;;;;;;;;4973267;28;20756;-56
2022/06/02 07:22:48;;;;;;;19.80;14.43;;;;;;;;;;4973346;28;20857;-55
2022/06/02 07:25:20;;;;;;;18.83;14.30;;;;;;;;;;4973129;28;20980;-56
2022/06/02 07:28:01;;;;;;;17.47;13.97;;;;;;;;;;4973339;28;20435;-55
2022/06/02 07:30:41;;;;;;;18.20;12.90;;;;;;;;;;4973188;28;20418;-56
2022/06/02 07:33:23;;;;;;;18.20;12.63;;;;;;;;;;4973116;28;20504;-56
2022/06/02 07:35:52;;;;;;;16.80;12.10;;;;;;;;;;4973036;28;20408;-56
2022/06/02 07:38:36;;;;;;;15.77;11.90;;;;;;;;;;4972982;28;20411;-56
2022/06/02 07:41:15;;;;;;;13.47;10.57;;;;;;;;;;4972866;28;20425;-55
2022/06/02 07:43:51;;;;;;;15.53;10.27;;;;;;;;;;4973057;28;20891;-56
2022/06/02 07:46:41;;;;;;;12.00;10.53;;;;;;;;;;4972817;28;20383;-57
2022/06/02 07:49:14;;;;;;;16.43;11.47;;;;;;;;;;4972858;28;20424;-56
2022/06/02 07:51:42;;;;;;;16.33;10.43;;;;;;;;;;4973056;28;20771;-57
2022/06/02 07:54:16;;;;;;;11.03;9.47;;;;;;;;;;4972729;28;20455;-58
2022/06/02 07:56:56;;;;;;;8.43;7.40;;;;;;;;;;4972603;28;21063;-56
2022/06/02 07:59:32;;;;;;;9.67;8.60;;;;;;;;;;4971818;28;20911;-55
2022/06/02 08:02:16;;;;;;;13.57;7.83;;;;;;;;;;4968117;28;20402;-56
2022/06/02 08:04:50;;;;;;;6.67;6.03;;;;;;;;;;4970632;28;20405;-56
2022/06/02 08:07:16;;;;;;;7.17;6.30;;;;;;;;;;4972909;28;20428;-56
2022/06/02 08:09:52;;;;;;;6.87;6.17;;;;;;;;;;4972535;28;20448;-56
2022/06/02 08:12:24;;;;;;;7.33;6.73;;;;;;;;;;4971822;28;20911;-57
2022/06/02 08:14:57;;;;;;;7.30;6.60;;;;;;;;;;4972093;28;20534;-57
2022/06/02 08:17:28;;;;;;;15.33;6.60;;;;;;;;;;4972473;28;20787;-56
2022/06/02 08:20:03;;;;;;;5.60;4.97;;;;;;;;;;4972391;28;20913;-56
2022/06/02 08:22:45;;;;;;;4.97;4.53;;;;;;;;;;4973640;28;20884;-55
2022/06/02 08:25:21;;;;;;;5.33;4.63;;;;;;;;;;4976095;28;20490;-56
2022/06/02 08:27:53;;;;;;;8.10;5.13;;;;;;;;;;4976314;28;20944;-55
2022/06/02 08:30:23;;;;;;;3.33;3.07;;;;;;;;;;4958828;28;20443;-56
2022/06/02 08:33:07;;;;;;;2.97;2.67;;;;;;;;;;4976349;28;20404;-53
2022/06/02 08:35:33;;;;;;;3.30;3.10;;;;;;;;;;4973914;28;20432;-54
2022/06/02 08:38:02;;;;;;;2.60;2.40;;;;;;;;;;4973995;28;20795;-55
2022/06/02 08:40:46;;;;;;;3.47;3.20;;;;;;;;;;4974363;28;20444;-54
2022/06/02 08:43:21;;;;;;;3.93;3.50;;;;;;;;;;4965124;28;20511;-55
2022/06/02 08:46:06;;;;;;;5.33;3.27;;;;;;;;;;4975966;28;20411;-55
2022/06/02 08:48:47;;;;;;;3.30;2.73;;;;;;;;;;4975585;28;20893;-56
2022/06/02 08:51:45;;;;;;;3.10;2.90;;;;;;;;;;4975874;28;20487;-56
2022/06/02 08:54:23;;;;;;;3.57;3.37;;;;;;;;;;4922710;28;21107;-55
2022/06/02 08:57:03;;;;;;;3.43;3.23;;;;;;;;;;4975774;28;20409;-55
2022/06/02 08:59:29;;;;;;;3.67;3.33;;;;;;;;;;4975531;28;20462;-54
2022/06/02 09:02:14;;;;;;;4.23;3.93;;;;;;;;;;4975662;28;20411;-57
2022/06/02 09:04:51;;;;;;;5.93;3.53;;;;;;;;;;4975443;28;20924;-57
2022/06/02 09:07:17;;;;;;;4.43;3.40;;;;;;;;;;4975637;28;20398;-57
2022/06/02 09:09:46;;;;;;;4.83;4.43;;;;;;;;;;4974954;28;20440;-57
2022/06/02 09:12:27;;;;;;;4.17;3.87;;;;;;;;;;4975262;28;20417;-57
2022/06/02 09:15:12;;;;;;;3.47;3.27;;;;;;;;;;4974718;28;20519;-56
2022/06/02 09:17:57;;;;;;;2.80;2.60;;;;;;;;;;4972384;28;20512;-57
2022/06/02 09:20:32;;;;;;;4.83;4.43;;;;;;;;;;4972109;28;20438;-56
2022/06/02 09:23:24;;;;;;;4.93;4.63;;;;;;;;;;4974930;28;20482;-56
2022/06/02 09:25:56;;;;;;;4.60;4.20;;;;;;;;;;4934885;28;20520;-54
2022/06/02 09:28:28;;;;;;;3.30;3.00;;;;;;;;;;4975205;28;20409;-56
2022/06/02 09:31:00;;;;;;;4.63;4.13;;;;;;;;;;4975103;28;20937;-58
2022/06/02 09:33:34;;;;;;;4.10;3.80;;;;;;;;;;4975711;28;20452;-59
2022/06/02 09:36:10;;;;;;;4.30;3.90;;;;;;;;;;4976654;28;20492;-57
2022/06/02 09:38:46;;;;;;;4.00;3.60;;;;;;;;;;4977099;28;21304;-56
2022/06/02 09:41:21;;;;;;;4.20;3.90;;;;;;;;;;4976468;28;20421;-56
2022/06/02 09:43:57;;;;;;;2.90;2.70;;;;;;;;;;4975956;28;20507;-57
2022/06/02 09:46:30;;;;;;;3.80;3.40;;;;;;;;;;4976639;28;20409;-57
2022/06/02 09:48:59;;;;;;;3.13;2.10;;;;;;;;;;4975965;28;20432;-58
2022/06/02 09:51:37;;;;;;;3.37;3.07;;;;;;;;;;4976588;28;20428;-56
2022/06/02 09:54:03;;;;;;;2.97;2.17;;;;;;;;;;4976305;28;20452;-56
2022/06/02 09:56:35;;;;;;;3.30;3.10;;;;;;;;;;4976947;28;20929;-57
2022/06/02 09:59:20;;;;;;;3.30;3.10;;;;;;;;;;4977851;28;20197;-58
2022/06/02 10:01:56;;;;;;;3.13;2.87;;;;;;;;;;4975413;28;20473;-56
2022/06/02 10:04:40;;;;;;;3.70;3.40;;;;;;;;;;4974981;28;20415;-57
2022/06/02 10:07:13;;;;;;;2.53;2.33;;;;;;;;;;4975785;28;20424;-57
2022/06/02 10:09:49;;;;;;;2.63;2.50;;;;;;;;;;4975611;28;20444;-57
2022/06/02 10:15:22;;;;;;;2.80;2.60;;;;;;;;;;4976145;28;20548;-57
2022/06/02 10:18:03;;;;;;;3.03;2.80;;;;;;;;;;4976197;28;20789;-57
2022/06/02 10:20:29;;;;;;;3.27;3.00;;;;;;;;;;4977324;28;21041;-59
2022/06/02 10:23:10;;;;;;;2.80;2.47;;;;;;;;;;4978552;28;20472;-59
2022/06/02 10:25:59;;;;;;;2.87;2.67;;;;;;;;;;4974641;28;20421;-56
2022/06/02 10:28:44;;;;;;;3.10;2.90;;;;;;;;;;4942334;29;21007;-57
2022/06/02 10:31:28;;;;;;;3.20;3.00;;;;;;;;;;4964964;28;20405;-57
2022/06/02 10:34:01;;;;;;;2.80;2.63;;;;;;;;;;4974363;28;20449;-57
2022/06/02 10:36:38;;;;;;;3.33;3.03;;;;;;;;;;4974104;28;20459;-57
2022/06/02 10:39:10;;;;;;;3.10;2.83;;;;;;;;;;4973707;28;20425;-57
2022/06/02 10:41:46;;;;;;;3.50;3.20;;;;;;;;;;4973450;28;20430;-57
2022/06/02 10:44:16;;;;;;;2.90;2.70;;;;;;;;;;4973467;28;20421;-56
2022/06/02 10:46:59;;;;;;;2.40;2.30;;;;;;;;;;4973390;28;20971;-56
2022/06/02 10:49:44;;;;;;;2.57;2.40;;;;;;;;;;4973411;28;20793;-57
2022/06/02 10:52:25;;;;;;;2.50;2.30;;;;;;;;;;4973833;28;20405;-57
2022/06/02 10:54:57;;;;;;;3.27;3.07;;;;;;;;;;4973389;28;20499;-57
2022/06/02 10:57:44;;;;;;;2.73;2.50;;;;;;;;;;4973721;28;20421;-56
2022/06/02 11:00:20;;;;;;;2.50;2.40;;;;;;;;;;4973148;28;20433;-56
2022/06/02 11:03:21;;;;;;;6.90;2.20;;;;;;;;;;4974102;28;20409;-55
2022/06/02 11:05:47;;;;;;;1.97;1.87;;;;;;;;;;4872295;29;20952;-55
2022/06/02 11:08:42;;;;;;;3.20;2.30;;;;;;;;;;4953862;28;20413;-56
2022/06/02 11:11:27;;;;;;;2.53;2.40;;;;;;;;;;4954349;29;20468;-55
2022/06/02 11:14:21;;;;;;;3.63;2.00;;;;;;;;;;4959203;28;20459;-55
2022/06/02 11:16:59;;;;;;;2.57;2.47;;;;;;;;;;4973343;28;20420;-54
2022/06/02 11:19:28;;;;;;;2.37;2.27;;;;;;;;;;4973183;28;20448;-55
2022/06/02 11:21:54;;;;;;;1.80;1.70;;;;;;;;;;4973397;28;20467;-54
2022/06/02 11:24:36;;;;;;;2.43;2.20;;;;;;;;;;4981261;28;20436;-56
2022/06/02 11:27:21;;;;;;;2.23;2.00;;;;;;;;;;4973320;28;20416;-55
2022/06/02 11:30:03;;;;;;;2.43;2.10;;;;;;;;;;4972800;28;21020;-55
2022/06/02 11:32:36;;;;;;;2.20;2.10;;;;;;;;;;4973263;28;20408;-56
2022/06/02 11:35:05;;;;;;;2.17;2.00;;;;;;;;;;4971400;28;20525;-54
2022/06/02 11:37:40;;;;;;;1.73;1.63;;;;;;;;;;4971877;28;20458;-55
2022/06/02 11:40:19;;;;;;;3.23;2.93;;;;;;;;;;4970807;28;20437;-55
2022/06/02 11:43:05;;;;;;;4.53;2.37;;;;;;;;;;4973608;28;20420;-59
2022/06/02 11:45:49;;;;;;;2.50;2.30;;;;;;;;;;4973663;28;21172;-59
2022/06/02 11:48:33;;;;;;;4.20;1.60;;;;;;;;;;4974134;28;20408;-59
2022/06/02 11:51:02;;;;;;;1.97;1.40;;;;;;;;;;4973551;28;20456;-57
2022/06/02 11:53:34;;;;;;;2.20;1.87;;;;;;;;;;4974799;28;20810;-57
2022/06/02 11:56:06;;;;;;;2.00;1.90;;;;;;;;;;4974082;28;20424;-55
2022/06/02 11:59:01;;;;;;;2.20;2.10;;;;;;;;;;4976906;28;20487;-55
2022/06/02 12:01:37;;;;;;;2.60;2.43;;;;;;;;;;4939323;28;20921;-55
2022/06/02 12:04:22;;;;;;;3.23;2.53;;;;;;;;;;4975582;28;20404;-56
2022/06/02 12:07:06;;;;;;;2.40;2.10;;;;;;;;;;4976671;28;20889;-55
2022/06/02 12:09:41;;;;;;;2.20;2.10;;;;;;;;;;4976501;28;20444;-55
2022/06/02 12:12:41;;;;;;;2.50;2.40;;;;;;;;;;4976776;28;20412;-55
2022/06/02 12:15:13;;;;;;;2.50;2.40;;;;;;;;;;4893076;28;20472;-57
2022/06/02 12:17:57;;;;;;;1.73;1.63;;;;;;;;;;4976966;28;20420;-57
2022/06/02 12:20:34;;;;;;;5.73;2.13;;;;;;;;;;4975048;28;20443;-54
2022/06/02 12:23:04;;;;;;;2.33;2.13;;;;;;;;;;4958850;28;20420;-56
2022/06/02 12:25:30;;;;;;;2.00;1.90;;;;;;;;;;4976288;28;20413;-55
2022/06/02 12:28:21;;;;;;;2.10;2.00;;;;;;;;;;4976548;28;20468;-56
2022/06/02 12:31:03;;;;;;;2.00;1.90;;;;;;;;;;4976228;28;20432;-55
2022/06/02 12:33:38;;;;;;;2.40;2.13;;;;;;;;;;4976251;28;20448;-56
2022/06/02 12:36:22;;;;;;;2.20;2.10;;;;;;;;;;4971506;28;20456;-56
2022/06/02 12:38:57;;;;;;;3.47;2.17;;;;;;;;;;4975927;28;20523;-55
2022/06/02 12:41:27;;;;;;;1.70;1.60;;;;;;;;;;4975665;28;20431;-54
2022/06/02 12:44:05;;;;;;;1.93;1.77;;;;;;;;;;4976421;28;20495;-55
2022/06/02 12:46:35;;;;;;;1.37;1.27;;;;;;;;;;4976038;28;20896;-55
2022/06/02 12:49:13;;;;;;;2.27;2.17;;;;;;;;;;4965527;28;20439;-55
2022/06/02 12:51:45;;;;;;;2.17;1.93;;;;;;;;;;4976067;28;20408;-56
2022/06/02 12:54:25;;;;;;;1.73;1.63;;;;;;;;;;4975953;28;20452;-54
2022/06/02 12:56:54;;;;;;;1.73;1.63;;;;;;;;;;4975913;28;20437;-56
2022/06/02 12:59:39;;;;;;;1.97;1.80;;;;;;;;;;4958421;28;20842;-56
2022/06/02 13:02:10;;;;;;;2.07;1.93;;;;;;;;;;4975196;28;20412;-57
2022/06/02 13:04:39;;;;;;;2.20;2.10;;;;;;;;;;4982313;28;20428;-57
2022/06/02 13:07:08;;;;;;;1.80;1.70;;;;;;;;;;4983112;28;20570;-57
2022/06/02 13:09:52;;;;;;;2.50;2.30;;;;;;;;;;4994677;28;20482;-57
2022/06/02 13:12:37;;;;;;;2.27;2.07;;;;;;;;;;4979185;28;20428;-56
2022/06/02 13:15:38;;;;;;;2.03;1.93;;;;;;;;;;4974750;28;20525;-57
2022/06/02 13:18:06;;;;;;;2.80;2.60;;;;;;;;;;4876924;29;20468;-58
2022/06/02 13:20:44;;;;;;;2.30;2.10;;;;;;;;;;4952007;28;20447;-58
2022/06/02 13:23:19;;;;;;;2.60;2.40;;;;;;;;;;4975796;28;20463;-57
2022/06/02 13:25:55;;;;;;;2.10;1.80;;;;;;;;;;4975782;28;20401;-57
2022/06/02 13:28:21;;;;;;;2.07;1.97;;;;;;;;;;4971236;28;20416;-57
2022/06/02 13:30:56;;;;;;;2.83;2.60;;;;;;;;;;4966155;28;20831;-58
2022/06/02 13:33:48;;;;;;;2.30;2.20;;;;;;;;;;4970241;28;20260;-58
2022/06/02 13:36:26;;;;;;;2.60;2.40;;;;;;;;;;4972247;28;20500;-56
2022/06/02 13:39:11;;;;;;;2.40;2.30;;;;;;;;;;4971554;28;20467;-56
2022/06/02 13:41:37;;;;;;;3.40;3.13;;;;;;;;;;4971304;28;20913;-56
2022/06/02 13:44:03;;;;;;;2.67;2.57;;;;;;;;;;4971479;28;20415;-55
2022/06/02 13:46:49;;;;;;;3.37;3.17;;;;;;;;;;4974885;28;20169;-56
2022/06/02 13:49:34;;;;;;;3.87;3.60;;;;;;;;;;4925378;28;20449;-55
2022/06/02 13:52:20;;;;;;;3.90;3.70;;;;;;;;;;4974948;28;20463;-56
2022/06/02 13:57:43;;;;;;;3.50;3.20;;;;;;;;;;4975234;28;20448;-54
2022/06/02 14:00:28;;;;;;;4.00;3.70;;;;;;;;;;4974650;28;20526;-55
2022/06/02 14:03:07;;;;;;;4.40;4.00;;;;;;;;;;4974780;28;20401;-56
2022/06/02 14:05:33;;;;;;;3.77;3.57;;;;;;;;;;4974621;28;20400;-55
2022/06/02 14:08:18;;;;;;;3.93;3.73;;;;;;;;;;4974461;28;20463;-55
2022/06/02 14:11:02;;;;;;;3.53;3.33;;;;;;;;;;4974613;28;20280;-56
2022/06/02 14:13:47;;;;;;;2.60;2.40;;;;;;;;;;4974491;28;20408;-55
2022/06/02 14:16:21;;;;;;;3.17;2.97;;;;;;;;;;4974445;28;20411;-55
2022/06/02 14:19:02;;;;;;;2.97;2.70;;;;;;;;;;4974098;28;20413;-56
2022/06/02 14:21:34;;;;;;;4.10;3.90;;;;;;;;;;4973787;28;20401;-56
2022/06/02 14:24:12;;;;;;;4.30;4.10;;;;;;;;;;4974566;28;20413;-55
2022/06/02 14:26:52;;;;;;;4.30;4.00;;;;;;;;;;4974312;28;20401;-56
2022/06/02 14:29:21;;;;;;;4.40;4.20;;;;;;;;;;4973860;28;20821;-55
2022/06/02 14:31:48;;;;;;;4.87;4.37;;;;;;;;;;4974210;28;20746;-55
2022/06/02 14:34:22;;;;;;;3.87;3.67;;;;;;;;;;4974231;28;20527;-55
2022/06/02 14:36:53;;;;;;;4.00;3.73;;;;;;;;;;4974000;28;20487;-56
2022/06/02 14:39:29;;;;;;;8.40;7.70;;;;;;;;;;4974033;28;20420;-55
2022/06/02 14:41:55;;;;;;;4.73;3.63;;;;;;;;;;4980151;28;20440;-55
2022/06/02 14:44:32;;;;;;;3.63;3.43;;;;;;;;;;4973920;28;20965;-54
2022/06/02 14:47:16;;;;;;;3.07;2.87;;;;;;;;;;4973762;28;20174;-53
2022/06/02 14:49:52;;;;;;;3.20;3.00;;;;;;;;;;4973710;28;20427;-54
2022/06/02 14:52:56;;;;;;;3.37;3.17;;;;;;;;;;4973890;28;20456;-54
2022/06/02 14:55:25;;;;;;;2.87;2.67;;;;;;;;;;4875727;29;20471;-54
2022/06/02 14:57:51;;;;;;;3.50;3.27;;;;;;;;;;4875739;29;20477;-53
2022/06/02 15:00:24;;;;;;;3.50;3.27;;;;;;;;;;4923658;28;20433;-53
2022/06/02 15:03:09;;;;;;;4.00;3.70;;;;;;;;;;4973455;28;20411;-56
2022/06/02 15:05:54;;;;;;;3.77;3.57;;;;;;;;;;4973302;28;20432;-55
2022/06/02 15:08:35;;;;;;;3.20;3.00;;;;;;;;;;4973564;28;20507;-55
2022/06/02 15:11:11;;;;;;;2.87;2.70;;;;;;;;;;4973598;28;20446;-56
2022/06/02 15:13:55;;;;;;;3.73;2.37;;;;;;;;;;4973098;28;20459;-56
2022/06/02 15:16:24;;;;;;;3.70;3.40;;;;;;;;;;4971892;28;20420;-56
2022/06/02 15:19:09;;;;;;;2.80;2.70;;;;;;;;;;4955786;28;20436;-55
2022/06/02 15:21:38;;;;;;;2.80;2.60;;;;;;;;;;4973271;28;20909;-56
2022/06/02 15:24:10;;;;;;;2.30;2.20;;;;;;;;;;4972923;28;20425;-55
2022/06/02 15:26:48;;;;;;;2.37;2.27;;;;;;;;;;4973181;28;20401;-55
2022/06/02 15:29:33;;;;;;;2.67;2.47;;;;;;;;;;4973127;28;20441;-56
2022/06/02 15:32:25;;;;;;;2.50;2.40;;;;;;;;;;4972943;28;20405;-54
2022/06/02 15:35:09;;;;;;;2.63;2.40;;;;;;;;;;4972492;28;20543;-54
2022/06/02 15:37:44;;;;;;;2.40;2.30;;;;;;;;;;4973080;28;20423;-53
2022/06/02 15:40:19;;;;;;;3.50;2.83;;;;;;;;;;4972932;28;20433;-52
2022/06/02 15:43:04;;;;;;;4.10;2.67;;;;;;;;;;4972302;28;21225;-57
2022/06/02 15:45:48;;;;;;;2.10;2.00;;;;;;;;;;4973864;28;20435;-57